sensor_id;sensor_type;location;lat;lon;timestamp;P1;durP1;ratioP1;P2;durP2;ratioP2
44774;SDS011;31340;51.402;0.016;2022-09-09T00:04:41;19.08;;;3.90;;
44774;SDS011;31340;51.402;0.016;2022-09-09T00:07:21;16.00;;;3.28;;
44774;SDS011;31340;51.402;0.016;2022-09-09T00:09:55;18.70;;;3.60;;
44774;SDS011;31340;51.402;0.016;2022-09-09T00:15:20;14.35;;;3.25;;
44774;SDS011;31340;51.402;0.016;2022-09-09T00:23:44;15.68;;;3.78;;
44774;SDS011;31340;51.402;0.016;2022-09-09T00:31:42;14.50;;;3.72;;
44774;SDS011;31340;51.402;0.016;2022-09-09T00:36:48;13.10;;;3.13;;
44774;SDS011;31340;51.402;0.016;2022-09-09T00:39:31;17.40;;;3.90;;
44774;SDS011;31340;51.402;0.016;2022-09-09T00:42:13;14.98;;;3.70;;
44774;SDS011;31340;51.402;0.016;2022-09-09T00:45:02;17.98;;;4.32;;
44774;SDS011;31340;51.402;0.016;2022-09-09T00:47:45;18.00;;;5.05;;
44774;SDS011;31340;51.402;0.016;2022-09-09T00:53:16;17.33;;;4.35;;
44774;SDS011;31340;51.402;0.016;2022-09-09T00:58:38;17.02;;;3.75;;
44774;SDS011;31340;51.402;0.016;2022-09-09T01:01:18;17.23;;;4.05;;
44774;SDS011;31340;51.402;0.016;2022-09-09T01:03:52;8.75;;;3.25;;
44774;SDS011;31340;51.402;0.016;2022-09-09T01:06:31;15.77;;;4.18;;
44774;SDS011;31340;51.402;0.016;2022-09-09T01:09:11;16.30;;;3.95;;
44774;SDS011;31340;51.402;0.016;2022-09-09T01:14:35;16.92;;;4.85;;
44774;SDS011;31340;51.402;0.016;2022-09-09T01:17:21;18.15;;;5.78;;
44774;SDS011;31340;51.402;0.016;2022-09-09T01:20:44;13.85;;;4.30;;
44774;SDS011;31340;51.402;0.016;2022-09-09T01:26:34;12.25;;;4.22;;
44774;SDS011;31340;51.402;0.016;2022-09-09T01:29:09;16.25;;;5.60;;
44774;SDS011;31340;51.402;0.016;2022-09-09T01:31:58;12.20;;;3.72;;
44774;SDS011;31340;51.402;0.016;2022-09-09T01:34:29;16.15;;;4.40;;
44774;SDS011;31340;51.402;0.016;2022-09-09T01:37:02;19.95;;;4.93;;
44774;SDS011;31340;51.402;0.016;2022-09-09T01:39:36;14.18;;;4.82;;
44774;SDS011;31340;51.402;0.016;2022-09-09T01:42:09;16.80;;;4.68;;
44774;SDS011;31340;51.402;0.016;2022-09-09T01:44:41;20.02;;;4.78;;
44774;SDS011;31340;51.402;0.016;2022-09-09T01:47:09;9.55;;;3.90;;
44774;SDS011;31340;51.402;0.016;2022-09-09T01:50:00;19.27;;;5.57;;
44774;SDS011;31340;51.402;0.016;2022-09-09T01:52:30;22.00;;;7.25;;
44774;SDS011;31340;51.402;0.016;2022-09-09T01:55:01;18.73;;;6.30;;
44774;SDS011;31340;51.402;0.016;2022-09-09T01:57:39;22.98;;;7.00;;
44774;SDS011;31340;51.402;0.016;2022-09-09T02:00:21;18.95;;;5.82;;
44774;SDS011;31340;51.402;0.016;2022-09-09T02:05:55;21.25;;;4.75;;
44774;SDS011;31340;51.402;0.016;2022-09-09T02:09:19;20.70;;;5.00;;
44774;SDS011;31340;51.402;0.016;2022-09-09T02:11:40;16.25;;;4.53;;
44774;SDS011;31340;51.402;0.016;2022-09-09T02:14:22;24.33;;;4.88;;
44774;SDS011;31340;51.402;0.016;2022-09-09T02:16:56;13.18;;;3.83;;
44774;SDS011;31340;51.402;0.016;2022-09-09T02:19:51;17.05;;;4.00;;
44774;SDS011;31340;51.402;0.016;2022-09-09T02:22:37;20.52;;;4.07;;
44774;SDS011;31340;51.402;0.016;2022-09-09T02:25:08;16.75;;;4.15;;
44774;SDS011;31340;51.402;0.016;2022-09-09T02:27:40;16.45;;;4.55;;
44774;SDS011;31340;51.402;0.016;2022-09-09T02:30:10;17.33;;;3.90;;
44774;SDS011;31340;51.402;0.016;2022-09-09T02:32:44;21.35;;;3.53;;
44774;SDS011;31340;51.402;0.016;2022-09-09T02:35:21;22.30;;;4.97;;
44774;SDS011;31340;51.402;0.016;2022-09-09T02:37:51;18.85;;;3.58;;
44774;SDS011;31340;51.402;0.016;2022-09-09T02:40:23;15.55;;;3.53;;
44774;SDS011;31340;51.402;0.016;2022-09-09T02:42:58;17.05;;;3.83;;
44774;SDS011;31340;51.402;0.016;2022-09-09T02:45:31;17.88;;;4.10;;
44774;SDS011;31340;51.402;0.016;2022-09-09T02:50:55;14.88;;;3.83;;
44774;SDS011;31340;51.402;0.016;2022-09-09T02:53:48;14.85;;;4.13;;
44774;SDS011;31340;51.402;0.016;2022-09-09T02:56:43;14.65;;;4.28;;
44774;SDS011;31340;51.402;0.016;2022-09-09T02:59:20;21.17;;;5.00;;
44774;SDS011;31340;51.402;0.016;2022-09-09T03:01:48;16.98;;;5.13;;
44774;SDS011;31340;51.402;0.016;2022-09-09T03:04:16;20.35;;;5.20;;
44774;SDS011;31340;51.402;0.016;2022-09-09T03:06:43;12.88;;;4.38;;
44774;SDS011;31340;51.402;0.016;2022-09-09T03:09:17;16.05;;;4.85;;
44774;SDS011;31340;51.402;0.016;2022-09-09T03:11:45;17.77;;;5.10;;
44774;SDS011;31340;51.402;0.016;2022-09-09T03:14:15;20.30;;;5.47;;
44774;SDS011;31340;51.402;0.016;2022-09-09T03:16:43;22.95;;;5.75;;
44774;SDS011;31340;51.402;0.016;2022-09-09T03:19:11;22.55;;;5.75;;
44774;SDS011;31340;51.402;0.016;2022-09-09T03:21:38;19.55;;;5.63;;
44774;SDS011;31340;51.402;0.016;2022-09-09T03:24:06;23.52;;;5.93;;
44774;SDS011;31340;51.402;0.016;2022-09-09T03:26:34;20.52;;;5.65;;
44774;SDS011;31340;51.402;0.016;2022-09-09T03:29:03;18.13;;;5.43;;
44774;SDS011;31340;51.402;0.016;2022-09-09T03:34:01;17.63;;;5.30;;
44774;SDS011;31340;51.402;0.016;2022-09-09T03:36:32;19.17;;;5.18;;
44774;SDS011;31340;51.402;0.016;2022-09-09T03:39:00;17.83;;;5.47;;
44774;SDS011;31340;51.402;0.016;2022-09-09T03:41:30;16.52;;;4.70;;
44774;SDS011;31340;51.402;0.016;2022-09-09T03:44:00;18.90;;;5.18;;
44774;SDS011;31340;51.402;0.016;2022-09-09T03:46:32;16.33;;;5.25;;
44774;SDS011;31340;51.402;0.016;2022-09-09T03:49:00;18.85;;;5.80;;
44774;SDS011;31340;51.402;0.016;2022-09-09T03:51:31;21.20;;;6.32;;
44774;SDS011;31340;51.402;0.016;2022-09-09T03:54:04;23.67;;;5.82;;
44774;SDS011;31340;51.402;0.016;2022-09-09T03:56:35;25.67;;;5.57;;
44774;SDS011;31340;51.402;0.016;2022-09-09T03:59:03;24.23;;;6.95;;
44774;SDS011;31340;51.402;0.016;2022-09-09T04:01:31;14.18;;;4.85;;
44774;SDS011;31340;51.402;0.016;2022-09-09T04:03:59;20.10;;;5.22;;
44774;SDS011;31340;51.402;0.016;2022-09-09T04:06:27;15.55;;;4.78;;
44774;SDS011;31340;51.402;0.016;2022-09-09T04:08:54;22.08;;;5.72;;
44774;SDS011;31340;51.402;0.016;2022-09-09T04:11:24;14.15;;;4.70;;
44774;SDS011;31340;51.402;0.016;2022-09-09T04:13:54;21.48;;;5.78;;
44774;SDS011;31340;51.402;0.016;2022-09-09T04:16:22;12.95;;;5.28;;
44774;SDS011;31340;51.402;0.016;2022-09-09T04:18:50;19.15;;;5.85;;
44774;SDS011;31340;51.402;0.016;2022-09-09T04:21:19;17.67;;;5.57;;
44774;SDS011;31340;51.402;0.016;2022-09-09T04:23:48;26.45;;;6.65;;
44774;SDS011;31340;51.402;0.016;2022-09-09T04:26:15;15.52;;;5.55;;
44774;SDS011;31340;51.402;0.016;2022-09-09T04:28:44;14.43;;;5.45;;
44774;SDS011;31340;51.402;0.016;2022-09-09T04:31:18;17.08;;;6.05;;
44774;SDS011;31340;51.402;0.016;2022-09-09T04:33:52;27.20;;;6.78;;
44774;SDS011;31340;51.402;0.016;2022-09-09T04:36:21;26.08;;;6.95;;
44774;SDS011;31340;51.402;0.016;2022-09-09T04:38:54;16.50;;;5.85;;
44774;SDS011;31340;51.402;0.016;2022-09-09T04:41:21;16.98;;;6.75;;
44774;SDS011;31340;51.402;0.016;2022-09-09T04:43:52;16.23;;;5.35;;
44774;SDS011;31340;51.402;0.016;2022-09-09T04:46:21;19.42;;;6.40;;
44774;SDS011;31340;51.402;0.016;2022-09-09T04:48:50;18.48;;;5.65;;
44774;SDS011;31340;51.402;0.016;2022-09-09T04:51:22;14.00;;;6.50;;
44774;SDS011;31340;51.402;0.016;2022-09-09T04:53:51;17.63;;;7.23;;
44774;SDS011;31340;51.402;0.016;2022-09-09T04:56:20;16.65;;;6.30;;
44774;SDS011;31340;51.402;0.016;2022-09-09T04:58:54;15.88;;;5.30;;
44774;SDS011;31340;51.402;0.016;2022-09-09T05:01:28;18.55;;;6.03;;
44774;SDS011;31340;51.402;0.016;2022-09-09T05:04:02;18.17;;;7.28;;
44774;SDS011;31340;51.402;0.016;2022-09-09T05:06:32;14.60;;;6.03;;
44774;SDS011;31340;51.402;0.016;2022-09-09T05:09:01;20.98;;;5.97;;
44774;SDS011;31340;51.402;0.016;2022-09-09T05:11:31;12.70;;;5.63;;
44774;SDS011;31340;51.402;0.016;2022-09-09T05:14:22;19.50;;;6.68;;
44774;SDS011;31340;51.402;0.016;2022-09-09T05:16:50;16.00;;;6.65;;
44774;SDS011;31340;51.402;0.016;2022-09-09T05:19:18;17.15;;;6.70;;
44774;SDS011;31340;51.402;0.016;2022-09-09T05:21:48;21.47;;;6.93;;
44774;SDS011;31340;51.402;0.016;2022-09-09T05:24:21;20.00;;;6.63;;
44774;SDS011;31340;51.402;0.016;2022-09-09T05:26:53;27.30;;;7.45;;
44774;SDS011;31340;51.402;0.016;2022-09-09T05:29:20;20.42;;;7.57;;
44774;SDS011;31340;51.402;0.016;2022-09-09T05:31:48;17.75;;;7.07;;
44774;SDS011;31340;51.402;0.016;2022-09-09T05:34:19;22.42;;;8.38;;
44774;SDS011;31340;51.402;0.016;2022-09-09T05:36:49;20.73;;;7.88;;
44774;SDS011;31340;51.402;0.016;2022-09-09T05:39:17;23.27;;;8.77;;
44774;SDS011;31340;51.402;0.016;2022-09-09T05:41:45;21.55;;;8.57;;
44774;SDS011;31340;51.402;0.016;2022-09-09T05:44:13;26.17;;;10.35;;
44774;SDS011;31340;51.402;0.016;2022-09-09T05:46:40;21.65;;;9.70;;
44774;SDS011;31340;51.402;0.016;2022-09-09T05:49:07;24.17;;;10.40;;
44774;SDS011;31340;51.402;0.016;2022-09-09T05:51:35;34.55;;;10.73;;
44774;SDS011;31340;51.402;0.016;2022-09-09T05:54:08;16.77;;;8.40;;
44774;SDS011;31340;51.402;0.016;2022-09-09T05:56:41;26.52;;;10.88;;
44774;SDS011;31340;51.402;0.016;2022-09-09T05:59:09;29.02;;;10.25;;
44774;SDS011;31340;51.402;0.016;2022-09-09T06:01:38;19.20;;;9.68;;
44774;SDS011;31340;51.402;0.016;2022-09-09T06:04:14;21.42;;;9.35;;
44774;SDS011;31340;51.402;0.016;2022-09-09T06:06:42;25.90;;;9.85;;
44774;SDS011;31340;51.402;0.016;2022-09-09T06:09:16;26.02;;;9.98;;
44774;SDS011;31340;51.402;0.016;2022-09-09T06:11:44;22.63;;;10.38;;
44774;SDS011;31340;51.402;0.016;2022-09-09T06:14:13;18.75;;;8.88;;
44774;SDS011;31340;51.402;0.016;2022-09-09T06:19:17;25.15;;;9.90;;
44774;SDS011;31340;51.402;0.016;2022-09-09T06:21:45;22.85;;;10.75;;
44774;SDS011;31340;51.402;0.016;2022-09-09T06:24:15;22.50;;;10.33;;
44774;SDS011;31340;51.402;0.016;2022-09-09T06:26:44;28.17;;;10.88;;
44774;SDS011;31340;51.402;0.016;2022-09-09T06:29:17;20.55;;;10.02;;
44774;SDS011;31340;51.402;0.016;2022-09-09T06:31:45;24.92;;;9.85;;
44774;SDS011;31340;51.402;0.016;2022-09-09T06:34:15;28.85;;;10.38;;
44774;SDS011;31340;51.402;0.016;2022-09-09T06:36:47;29.13;;;11.20;;
44774;SDS011;31340;51.402;0.016;2022-09-09T06:39:15;25.08;;;9.73;;
44774;SDS011;31340;51.402;0.016;2022-09-09T06:41:44;24.92;;;10.15;;
44774;SDS011;31340;51.402;0.016;2022-09-09T06:44:35;32.30;;;11.05;;
44774;SDS011;31340;51.402;0.016;2022-09-09T06:49:33;20.50;;;9.35;;
44774;SDS011;31340;51.402;0.016;2022-09-09T06:52:05;21.38;;;9.40;;
44774;SDS011;31340;51.402;0.016;2022-09-09T06:54:33;20.10;;;8.93;;
44774;SDS011;31340;51.402;0.016;2022-09-09T06:59:54;21.73;;;9.20;;
44774;SDS011;31340;51.402;0.016;2022-09-09T07:02:22;21.10;;;8.40;;
44774;SDS011;31340;51.402;0.016;2022-09-09T07:04:51;18.70;;;7.85;;
44774;SDS011;31340;51.402;0.016;2022-09-09T07:07:19;19.73;;;8.10;;
44774;SDS011;31340;51.402;0.016;2022-09-09T07:09:47;17.27;;;8.38;;
44774;SDS011;31340;51.402;0.016;2022-09-09T07:12:16;21.50;;;8.80;;
44774;SDS011;31340;51.402;0.016;2022-09-09T07:14:51;17.08;;;8.18;;
44774;SDS011;31340;51.402;0.016;2022-09-09T07:17:18;15.15;;;7.97;;
44774;SDS011;31340;51.402;0.016;2022-09-09T07:19:46;20.02;;;8.07;;
44774;SDS011;31340;51.402;0.016;2022-09-09T07:22:15;16.73;;;7.90;;
44774;SDS011;31340;51.402;0.016;2022-09-09T07:24:43;19.38;;;7.38;;
44774;SDS011;31340;51.402;0.016;2022-09-09T07:27:12;14.60;;;7.90;;
44774;SDS011;31340;51.402;0.016;2022-09-09T07:29:41;17.08;;;7.25;;
44774;SDS011;31340;51.402;0.016;2022-09-09T07:32:09;17.58;;;7.47;;
44774;SDS011;31340;51.402;0.016;2022-09-09T07:34:38;22.88;;;8.38;;
44774;SDS011;31340;51.402;0.016;2022-09-09T07:37:05;13.85;;;6.82;;
44774;SDS011;31340;51.402;0.016;2022-09-09T07:39:34;16.73;;;7.97;;
44774;SDS011;31340;51.402;0.016;2022-09-09T07:42:02;13.65;;;7.15;;
44774;SDS011;31340;51.402;0.016;2022-09-09T07:44:31;17.00;;;6.90;;
44774;SDS011;31340;51.402;0.016;2022-09-09T07:47:09;19.13;;;8.30;;
44774;SDS011;31340;51.402;0.016;2022-09-09T07:49:41;13.25;;;6.80;;
44774;SDS011;31340;51.402;0.016;2022-09-09T07:52:09;16.10;;;7.28;;
44774;SDS011;31340;51.402;0.016;2022-09-09T07:54:42;17.58;;;7.57;;
44774;SDS011;31340;51.402;0.016;2022-09-09T07:57:10;13.02;;;6.88;;
44774;SDS011;31340;51.402;0.016;2022-09-09T07:59:39;17.73;;;7.53;;
44774;SDS011;31340;51.402;0.016;2022-09-09T08:02:08;15.77;;;7.68;;
44774;SDS011;31340;51.402;0.016;2022-09-09T08:04:36;14.07;;;7.85;;
44774;SDS011;31340;51.402;0.016;2022-09-09T08:07:04;18.25;;;7.90;;
44774;SDS011;31340;51.402;0.016;2022-09-09T08:09:38;16.05;;;7.47;;
44774;SDS011;31340;51.402;0.016;2022-09-09T08:12:14;13.00;;;6.95;;
44774;SDS011;31340;51.402;0.016;2022-09-09T08:14:42;15.82;;;7.25;;
44774;SDS011;31340;51.402;0.016;2022-09-09T08:17:09;16.88;;;7.25;;
44774;SDS011;31340;51.402;0.016;2022-09-09T08:19:37;15.68;;;6.70;;
44774;SDS011;31340;51.402;0.016;2022-09-09T08:22:10;16.17;;;6.95;;
44774;SDS011;31340;51.402;0.016;2022-09-09T08:24:39;20.17;;;8.23;;
44774;SDS011;31340;51.402;0.016;2022-09-09T08:27:08;12.40;;;6.68;;
44774;SDS011;31340;51.402;0.016;2022-09-09T08:29:37;13.90;;;7.05;;
44774;SDS011;31340;51.402;0.016;2022-09-09T08:32:05;14.57;;;6.50;;
44774;SDS011;31340;51.402;0.016;2022-09-09T08:34:35;12.20;;;6.13;;
44774;SDS011;31340;51.402;0.016;2022-09-09T08:37:11;12.43;;;6.28;;
44774;SDS011;31340;51.402;0.016;2022-09-09T08:39:40;15.90;;;7.13;;
44774;SDS011;31340;51.402;0.016;2022-09-09T08:42:11;13.48;;;5.95;;
44774;SDS011;31340;51.402;0.016;2022-09-09T08:53:03;15.52;;;6.22;;
44774;SDS011;31340;51.402;0.016;2022-09-09T08:58:14;12.73;;;6.63;;
44774;SDS011;31340;51.402;0.016;2022-09-09T09:03:51;10.82;;;6.22;;
44774;SDS011;31340;51.402;0.016;2022-09-09T09:11:59;12.48;;;6.38;;
44774;SDS011;31340;51.402;0.016;2022-09-09T09:14:35;15.32;;;6.57;;
44774;SDS011;31340;51.402;0.016;2022-09-09T09:17:18;15.15;;;6.43;;
44774;SDS011;31340;51.402;0.016;2022-09-09T09:19:48;12.90;;;6.30;;
44774;SDS011;31340;51.402;0.016;2022-09-09T09:22:22;11.38;;;6.55;;
44774;SDS011;31340;51.402;0.016;2022-09-09T09:25:08;12.27;;;6.28;;
44774;SDS011;31340;51.402;0.016;2022-09-09T09:31:04;11.93;;;6.63;;
44774;SDS011;31340;51.402;0.016;2022-09-09T09:33:45;12.55;;;5.82;;
44774;SDS011;31340;51.402;0.016;2022-09-09T09:36:42;14.48;;;6.90;;
44774;SDS011;31340;51.402;0.016;2022-09-09T09:39:26;12.55;;;6.80;;
44774;SDS011;31340;51.402;0.016;2022-09-09T09:42:17;12.73;;;7.15;;
44774;SDS011;31340;51.402;0.016;2022-09-09T09:44:52;11.10;;;7.25;;
44774;SDS011;31340;51.402;0.016;2022-09-09T09:47:22;9.57;;;7.35;;
44774;SDS011;31340;51.402;0.016;2022-09-09T09:50:00;15.60;;;8.13;;
44774;SDS011;31340;51.402;0.016;2022-09-09T09:52:34;11.43;;;7.93;;
44774;SDS011;31340;51.402;0.016;2022-09-09T09:55:05;11.65;;;8.10;;
44774;SDS011;31340;51.402;0.016;2022-09-09T09:57:42;14.23;;;8.73;;
44774;SDS011;31340;51.402;0.016;2022-09-09T10:02:51;15.13;;;9.90;;
44774;SDS011;31340;51.402;0.016;2022-09-09T10:05:28;16.52;;;10.05;;
44774;SDS011;31340;51.402;0.016;2022-09-09T10:10:39;19.35;;;11.35;;
44774;SDS011;31340;51.402;0.016;2022-09-09T10:13:50;14.30;;;9.85;;
44774;SDS011;31340;51.402;0.016;2022-09-09T10:19:34;16.33;;;10.32;;
44774;SDS011;31340;51.402;0.016;2022-09-09T10:30:26;16.73;;;11.07;;
44774;SDS011;31340;51.402;0.016;2022-09-09T10:33:09;21.40;;;11.45;;
44774;SDS011;31340;51.402;0.016;2022-09-09T10:38:17;18.88;;;11.35;;
44774;SDS011;31340;51.402;0.016;2022-09-09T10:41:13;20.85;;;11.77;;
44774;SDS011;31340;51.402;0.016;2022-09-09T10:49:22;17.60;;;10.90;;
44774;SDS011;31340;51.402;0.016;2022-09-09T10:51:59;17.70;;;10.45;;
44774;SDS011;31340;51.402;0.016;2022-09-09T10:57:40;17.60;;;10.40;;
44774;SDS011;31340;51.402;0.016;2022-09-09T11:02:43;21.20;;;10.95;;
44774;SDS011;31340;51.402;0.016;2022-09-09T11:07:51;14.80;;;9.68;;
44774;SDS011;31340;51.402;0.016;2022-09-09T11:16:36;17.42;;;9.90;;
44774;SDS011;31340;51.402;0.016;2022-09-09T11:19:19;20.08;;;11.02;;
44774;SDS011;31340;51.402;0.016;2022-09-09T11:22:44;18.27;;;10.52;;
44774;SDS011;31340;51.402;0.016;2022-09-09T11:24:56;17.80;;;9.93;;
44774;SDS011;31340;51.402;0.016;2022-09-09T11:36:16;13.52;;;8.02;;
44774;SDS011;31340;51.402;0.016;2022-09-09T11:38:54;9.40;;;5.40;;
44774;SDS011;31340;51.402;0.016;2022-09-09T11:41:33;8.07;;;4.22;;
44774;SDS011;31340;51.402;0.016;2022-09-09T11:44:17;7.45;;;3.95;;
44774;SDS011;31340;51.402;0.016;2022-09-09T11:46:52;8.43;;;4.20;;
44774;SDS011;31340;51.402;0.016;2022-09-09T11:50:06;6.85;;;3.75;;
44774;SDS011;31340;51.402;0.016;2022-09-09T11:52:11;6.88;;;3.58;;
44774;SDS011;31340;51.402;0.016;2022-09-09T11:54:59;9.48;;;5.00;;
44774;SDS011;31340;51.402;0.016;2022-09-09T12:03:04;8.20;;;4.40;;
44774;SDS011;31340;51.402;0.016;2022-09-09T12:05:40;7.18;;;4.38;;
44774;SDS011;31340;51.402;0.016;2022-09-09T12:08:15;11.23;;;4.60;;
44774;SDS011;31340;51.402;0.016;2022-09-09T12:10:56;8.93;;;4.03;;
44774;SDS011;31340;51.402;0.016;2022-09-09T12:13:26;7.47;;;3.83;;
44774;SDS011;31340;51.402;0.016;2022-09-09T12:15:55;9.43;;;4.05;;
44774;SDS011;31340;51.402;0.016;2022-09-09T12:23:55;9.05;;;3.20;;
44774;SDS011;31340;51.402;0.016;2022-09-09T12:26:43;6.80;;;3.80;;
44774;SDS011;31340;51.402;0.016;2022-09-09T12:29:35;7.38;;;3.78;;
44774;SDS011;31340;51.402;0.016;2022-09-09T12:32:12;8.40;;;4.10;;
44774;SDS011;31340;51.402;0.016;2022-09-09T12:37:52;5.88;;;4.20;;
44774;SDS011;31340;51.402;0.016;2022-09-09T12:40:32;7.72;;;3.80;;
44774;SDS011;31340;51.402;0.016;2022-09-09T12:43:15;7.35;;;3.67;;
44774;SDS011;31340;51.402;0.016;2022-09-09T12:45:48;8.15;;;4.45;;
44774;SDS011;31340;51.402;0.016;2022-09-09T12:48:27;7.68;;;3.60;;
44774;SDS011;31340;51.402;0.016;2022-09-09T12:51:19;7.30;;;3.63;;
44774;SDS011;31340;51.402;0.016;2022-09-09T12:53:52;7.60;;;3.60;;
44774;SDS011;31340;51.402;0.016;2022-09-09T12:56:22;6.85;;;3.60;;
44774;SDS011;31340;51.402;0.016;2022-09-09T12:58:54;6.78;;;3.97;;
44774;SDS011;31340;51.402;0.016;2022-09-09T13:01:24;6.47;;;3.70;;
44774;SDS011;31340;51.402;0.016;2022-09-09T13:03:54;9.82;;;4.10;;
44774;SDS011;31340;51.402;0.016;2022-09-09T13:06:23;12.50;;;4.50;;
44774;SDS011;31340;51.402;0.016;2022-09-09T13:08:59;8.98;;;3.20;;
44774;SDS011;31340;51.402;0.016;2022-09-09T13:11:30;7.18;;;3.80;;
44774;SDS011;31340;51.402;0.016;2022-09-09T13:14:18;7.47;;;3.28;;
44774;SDS011;31340;51.402;0.016;2022-09-09T13:16:56;9.25;;;3.63;;
44774;SDS011;31340;51.402;0.016;2022-09-09T13:19:27;6.22;;;3.10;;
44774;SDS011;31340;51.402;0.016;2022-09-09T13:21:59;5.22;;;3.20;;
44774;SDS011;31340;51.402;0.016;2022-09-09T13:24:31;6.10;;;3.88;;
44774;SDS011;31340;51.402;0.016;2022-09-09T13:27:02;6.90;;;3.88;;
44774;SDS011;31340;51.402;0.016;2022-09-09T13:29:31;8.75;;;3.50;;
44774;SDS011;31340;51.402;0.016;2022-09-09T13:32:06;6.97;;;3.05;;
44774;SDS011;31340;51.402;0.016;2022-09-09T13:34:53;4.82;;;3.30;;
44774;SDS011;31340;51.402;0.016;2022-09-09T13:37:36;6.82;;;2.80;;
44774;SDS011;31340;51.402;0.016;2022-09-09T13:40:05;6.10;;;3.10;;
44774;SDS011;31340;51.402;0.016;2022-09-09T13:42:35;5.60;;;3.28;;
44774;SDS011;31340;51.402;0.016;2022-09-09T13:45:14;4.65;;;3.15;;
44774;SDS011;31340;51.402;0.016;2022-09-09T13:47:47;4.30;;;3.35;;
44774;SDS011;31340;51.402;0.016;2022-09-09T13:52:52;7.28;;;3.28;;
44774;SDS011;31340;51.402;0.016;2022-09-09T13:55:22;5.07;;;3.10;;
44774;SDS011;31340;51.402;0.016;2022-09-09T13:57:52;5.50;;;3.33;;
44774;SDS011;31340;51.402;0.016;2022-09-09T14:00:30;6.65;;;3.78;;
44774;SDS011;31340;51.402;0.016;2022-09-09T14:02:59;4.68;;;3.30;;
44774;SDS011;31340;51.402;0.016;2022-09-09T14:05:32;7.38;;;4.22;;
44774;SDS011;31340;51.402;0.016;2022-09-09T14:08:11;6.90;;;3.78;;
44774;SDS011;31340;51.402;0.016;2022-09-09T14:10:47;6.95;;;4.03;;
44774;SDS011;31340;51.402;0.016;2022-09-09T14:13:15;5.75;;;3.50;;
44774;SDS011;31340;51.402;0.016;2022-09-09T14:15:42;6.05;;;3.97;;
44774;SDS011;31340;51.402;0.016;2022-09-09T14:18:11;7.38;;;3.78;;
44774;SDS011;31340;51.402;0.016;2022-09-09T14:20:40;5.63;;;3.47;;
44774;SDS011;31340;51.402;0.016;2022-09-09T14:23:09;5.30;;;3.58;;
44774;SDS011;31340;51.402;0.016;2022-09-09T14:25:42;6.32;;;3.63;;
44774;SDS011;31340;51.402;0.016;2022-09-09T14:28:10;4.93;;;3.00;;
44774;SDS011;31340;51.402;0.016;2022-09-09T14:30:39;5.43;;;3.15;;
44774;SDS011;31340;51.402;0.016;2022-09-09T14:33:08;6.40;;;3.28;;
44774;SDS011;31340;51.402;0.016;2022-09-09T14:35:38;4.97;;;3.33;;
44774;SDS011;31340;51.402;0.016;2022-09-09T14:38:07;5.60;;;2.80;;
44774;SDS011;31340;51.402;0.016;2022-09-09T14:40:36;5.45;;;3.20;;
44774;SDS011;31340;51.402;0.016;2022-09-09T14:43:04;6.80;;;2.92;;
44774;SDS011;31340;51.402;0.016;2022-09-09T14:45:32;4.47;;;2.78;;
44774;SDS011;31340;51.402;0.016;2022-09-09T14:48:00;8.75;;;3.13;;
44774;SDS011;31340;51.402;0.016;2022-09-09T14:50:27;5.32;;;2.33;;
44774;SDS011;31340;51.402;0.016;2022-09-09T14:52:56;4.63;;;2.35;;
44774;SDS011;31340;51.402;0.016;2022-09-09T14:55:23;5.03;;;2.95;;
44774;SDS011;31340;51.402;0.016;2022-09-09T14:57:50;5.47;;;2.70;;
44774;SDS011;31340;51.402;0.016;2022-09-09T15:00:18;4.22;;;2.55;;
44774;SDS011;31340;51.402;0.016;2022-09-09T15:02:46;7.57;;;3.13;;
44774;SDS011;31340;51.402;0.016;2022-09-09T15:05:13;4.65;;;2.40;;
44774;SDS011;31340;51.402;0.016;2022-09-09T15:07:41;5.05;;;2.78;;
44774;SDS011;31340;51.402;0.016;2022-09-09T15:10:09;4.65;;;2.50;;
44774;SDS011;31340;51.402;0.016;2022-09-09T15:12:37;3.97;;;2.00;;
44774;SDS011;31340;51.402;0.016;2022-09-09T15:15:05;4.30;;;2.10;;
44774;SDS011;31340;51.402;0.016;2022-09-09T15:17:33;3.25;;;1.85;;
44774;SDS011;31340;51.402;0.016;2022-09-09T15:20:02;4.05;;;2.22;;
44774;SDS011;31340;51.402;0.016;2022-09-09T15:22:30;7.00;;;2.00;;
44774;SDS011;31340;51.402;0.016;2022-09-09T15:24:58;3.92;;;1.88;;
44774;SDS011;31340;51.402;0.016;2022-09-09T15:27:26;5.65;;;1.95;;
44774;SDS011;31340;51.402;0.016;2022-09-09T15:29:53;5.95;;;1.52;;
44774;SDS011;31340;51.402;0.016;2022-09-09T15:32:21;3.50;;;1.75;;
44774;SDS011;31340;51.402;0.016;2022-09-09T15:34:48;4.93;;;1.73;;
44774;SDS011;31340;51.402;0.016;2022-09-09T15:37:19;5.03;;;1.90;;
44774;SDS011;31340;51.402;0.016;2022-09-09T15:39:47;3.30;;;1.38;;
44774;SDS011;31340;51.402;0.016;2022-09-09T15:42:15;2.95;;;2.00;;
44774;SDS011;31340;51.402;0.016;2022-09-09T15:44:43;4.00;;;1.85;;
44774;SDS011;31340;51.402;0.016;2022-09-09T15:47:11;3.75;;;1.70;;
44774;SDS011;31340;51.402;0.016;2022-09-09T15:49:42;5.47;;;1.30;;
44774;SDS011;31340;51.402;0.016;2022-09-09T15:52:10;3.67;;;1.73;;
44774;SDS011;31340;51.402;0.016;2022-09-09T15:54:38;2.25;;;1.65;;
44774;SDS011;31340;51.402;0.016;2022-09-09T15:57:07;6.63;;;1.90;;
44774;SDS011;31340;51.402;0.016;2022-09-09T15:59:38;6.70;;;1.95;;
44774;SDS011;31340;51.402;0.016;2022-09-09T16:02:07;4.25;;;1.83;;
44774;SDS011;31340;51.402;0.016;2022-09-09T16:04:36;4.63;;;1.80;;
44774;SDS011;31340;51.402;0.016;2022-09-09T16:07:04;7.85;;;2.42;;
44774;SDS011;31340;51.402;0.016;2022-09-09T16:09:33;4.10;;;2.28;;
44774;SDS011;31340;51.402;0.016;2022-09-09T16:12:03;7.18;;;2.22;;
44774;SDS011;31340;51.402;0.016;2022-09-09T16:14:36;5.65;;;2.47;;
44774;SDS011;31340;51.402;0.016;2022-09-09T16:17:05;8.13;;;2.42;;
44774;SDS011;31340;51.402;0.016;2022-09-09T16:19:33;27.98;;;5.50;;
44774;SDS011;31340;51.402;0.016;2022-09-09T16:22:01;11.77;;;3.75;;
44774;SDS011;31340;51.402;0.016;2022-09-09T16:24:30;9.45;;;3.03;;
44774;SDS011;31340;51.402;0.016;2022-09-09T16:26:58;5.70;;;1.98;;
44774;SDS011;31340;51.402;0.016;2022-09-09T16:29:26;4.60;;;1.90;;
44774;SDS011;31340;51.402;0.016;2022-09-09T16:31:54;3.40;;;1.90;;
44774;SDS011;31340;51.402;0.016;2022-09-09T16:34:27;3.83;;;1.75;;
44774;SDS011;31340;51.402;0.016;2022-09-09T16:36:54;9.40;;;2.30;;
44774;SDS011;31340;51.402;0.016;2022-09-09T16:39:22;4.47;;;2.20;;
44774;SDS011;31340;51.402;0.016;2022-09-09T16:41:50;3.30;;;1.95;;
44774;SDS011;31340;51.402;0.016;2022-09-09T16:44:19;3.75;;;2.17;;
44774;SDS011;31340;51.402;0.016;2022-09-09T16:46:47;5.18;;;2.10;;
44774;SDS011;31340;51.402;0.016;2022-09-09T16:49:24;4.85;;;2.47;;
44774;SDS011;31340;51.402;0.016;2022-09-09T16:51:51;3.38;;;2.60;;
44774;SDS011;31340;51.402;0.016;2022-09-09T16:54:20;4.43;;;2.40;;
44774;SDS011;31340;51.402;0.016;2022-09-09T16:56:48;4.97;;;2.60;;
44774;SDS011;31340;51.402;0.016;2022-09-09T16:59:17;5.80;;;2.95;;
44774;SDS011;31340;51.402;0.016;2022-09-09T17:01:46;3.97;;;2.50;;
44774;SDS011;31340;51.402;0.016;2022-09-09T17:04:18;7.75;;;3.28;;
44774;SDS011;31340;51.402;0.016;2022-09-09T17:06:48;5.97;;;3.95;;
44774;SDS011;31340;51.402;0.016;2022-09-09T17:09:18;5.57;;;3.22;;
44774;SDS011;31340;51.402;0.016;2022-09-09T17:11:46;4.05;;;2.80;;
44774;SDS011;31340;51.402;0.016;2022-09-09T17:14:15;5.97;;;3.83;;
44774;SDS011;31340;51.402;0.016;2022-09-09T17:16:44;6.00;;;3.13;;
44774;SDS011;31340;51.402;0.016;2022-09-09T17:19:13;7.43;;;3.92;;
44774;SDS011;31340;51.402;0.016;2022-09-09T17:21:41;7.68;;;3.70;;
44774;SDS011;31340;51.402;0.016;2022-09-09T17:24:29;5.03;;;3.50;;
44774;SDS011;31340;51.402;0.016;2022-09-09T17:26:57;5.60;;;3.97;;